KEWK

Newton-City-County Airport

Newton, Kansas, USA
METAR KEWK 181556Z AUTO 18010KT 10SM CLR 16/06 A3049 RMK AO2 SLP322 T01610056
Observed Flight Rules
Oct-18 @ 15:56 UTC (24 minutes ago) Visual Flight Rules
Wind Visibility Clouds
180° at 10 knots 10 miles
  • Clear skies
Temperatures Readings
Current 16°C / 61°F
Dewpoint 6°C / 43°F
Humidity 52%
Altimeter 30.49" Hg
Pressure 1032.2 hPa
Elevation 467
METAR KEWK 181556Z AUTO 18010KT 10SM CLR 16/06 A3049 RMK AO2 SLP322 T01610056
Observed Flight Rules
Oct-18 @ 15:56 UTC
(24 minutes ago)
VFR
Wind Visibility
180° at 10 knots 10 miles
Clouds
  • Clear skies
Temperature Dewpoint
16°C / 61°F 6°C / 43°F
Humidity Altimeter Pressure
52% 30.49" Hg 1032.2 hPa